Gilchrist, Oregon
Current Conditions -  °F | °C
As of 12:15 PM on Thursday 18 Dec 2014 (Local Time) from KBDN Reporting Station
Clear Clear  
Wind Chill: 38°   Ceiling: Unl
Heat Index: 45°   Visibility: 10mi
Dew Point: 34°   Wind: 15mph
Humidity: 66%   Direction: 200°SSW
Pressure: 29.96"   Gusts: NA
Location:  43.48°N, 121.69°W
Report Text: KBDN 182015Z AUTO 20013KT 10SM CLR 07/01 A2996 RMK AO2
Loading
Personal Weather Stations






























Interactive Weather Map New forecast layout! Learn more

10-Day Weather Forecast

Advertisements
Track Severe Weather on mobile